Time;durP1;ratioP1;P1;durP2;ratioP2;P2;SDS_P1;SDS_P2;PMS_P1;PMS_P2;Temp;Humidity;BMP_temperature;BMP_pressure;BME280_temperature;BME280_humidity;BME280_pressure;Samples;Min_cycle;Max_cycle;Signal;HPM_P1;HPM_P2
2022/01/07 00:02:18;;;;;;;4.00;1.58;;;2.90;99.90;;;;;;5038688;28;20068;-76
2022/01/07 00:04:48;;;;;;;3.88;2.28;;;2.90;99.90;;;;;;5029746;28;20039;-76
2022/01/07 00:07:16;;;;;;;5.38;2.63;;;2.90;99.90;;;;;;5041195;28;20045;-76
2022/01/07 00:09:44;;;;;;;4.35;1.83;;;3.00;99.90;;;;;;5045392;28;20047;-76
2022/01/07 00:12:17;;;;;;;6.20;2.33;;;3.00;99.90;;;;;;5040029;28;20049;-76
2022/01/07 00:14:46;;;;;;;11.82;2.58;;;3.00;99.90;;;;;;5044444;28;20045;-76
2022/01/07 00:17:14;;;;;;;4.15;1.67;;;3.00;99.90;;;;;;5040558;28;20064;-76
2022/01/07 00:19:42;;;;;;;11.40;3.08;;;3.00;99.90;;;;;;5042217;28;20045;-76
2022/01/07 00:22:12;;;;;;;5.35;1.63;;;3.10;99.90;;;;;;5038477;28;20407;-76
2022/01/07 00:24:41;;;;;;;4.57;1.60;;;2.90;99.90;;;;;;5041703;28;20096;-76
2022/01/07 00:27:10;;;;;;;8.15;1.98;;;2.80;99.90;;;;;;5037136;28;20048;-76
2022/01/07 00:30:19;;;;;;;8.00;1.92;;;2.90;99.90;;;;;;5042573;28;20052;-76
2022/01/07 00:32:48;;;;;;;6.43;1.83;;;3.00;99.90;;;;;;5040925;28;20143;-76
2022/01/07 00:35:18;;;;;;;4.82;1.80;;;3.10;99.90;;;;;;5028672;28;20052;-76
2022/01/07 00:37:49;;;;;;;5.30;2.23;;;3.10;99.90;;;;;;5037933;28;20472;-76
2022/01/07 00:40:20;;;;;;;4.35;2.00;;;3.10;99.90;;;;;;5044016;28;20134;-76
2022/01/07 00:42:50;;;;;;;12.13;2.38;;;3.10;99.90;;;;;;5042441;28;20048;-76
2022/01/07 00:45:44;;;;;;;7.80;2.92;;;3.20;99.90;;;;;;5036817;28;20132;-76
2022/01/07 00:48:13;;;;;;;7.55;2.30;;;3.20;99.90;;;;;;5040563;28;20084;-76
2022/01/07 00:50:42;;;;;;;8.40;2.03;;;3.20;99.90;;;;;;5041675;28;20045;-76
2022/01/07 00:53:15;;;;;;;3.60;1.60;;;3.20;99.90;;;;;;5040832;28;20038;-76
2022/01/07 00:55:43;;;;;;;4.75;2.85;;;3.20;99.90;;;;;;5039049;28;20043;-76
2022/01/07 00:58:12;;;;;;;7.65;2.25;;;3.20;99.90;;;;;;5045634;28;20097;-76
2022/01/07 01:00:40;;;;;;;5.45;2.17;;;3.20;99.90;;;;;;5038072;28;20065;-76
2022/01/07 01:03:09;;;;;;;4.50;2.00;;;3.10;99.90;;;;;;5039986;28;20064;-76
2022/01/07 01:05:39;;;;;;;3.80;2.30;;;3.10;99.90;;;;;;5047554;28;20597;-76
2022/01/07 01:08:07;;;;;;;4.18;1.92;;;3.00;99.90;;;;;;5046994;28;20507;-76
2022/01/07 01:10:37;;;;;;;3.30;1.63;;;3.10;99.90;;;;;;5042557;28;20044;-76
2022/01/07 01:13:06;;;;;;;6.10;2.55;;;3.00;99.90;;;;;;5045579;28;20049;-76
2022/01/07 01:15:34;;;;;;;12.23;2.53;;;3.10;99.90;;;;;;5037384;28;20052;-76
2022/01/07 01:18:03;;;;;;;4.05;2.28;;;3.00;99.90;;;;;;5045688;28;20037;-77
2022/01/07 01:20:32;;;;;;;4.72;1.67;;;3.10;99.90;;;;;;5027559;28;20087;-76
2022/01/07 01:23:25;;;;;;;4.93;1.98;;;3.10;99.90;;;;;;5045706;28;20463;-76
2022/01/07 01:25:55;;;;;;;4.97;1.75;;;3.20;99.90;;;;;;5038394;28;20051;-76
2022/01/07 01:28:29;;;;;;;5.13;2.40;;;3.20;99.90;;;;;;5040972;28;20052;-76
2022/01/07 01:30:58;;;;;;;5.13;1.88;;;3.20;99.90;;;;;;5042348;28;20041;-76
2022/01/07 01:33:28;;;;;;;6.72;3.97;;;3.20;99.90;;;;;;5045172;28;20118;-76
2022/01/07 01:35:56;;;;;;;5.20;2.55;;;3.30;99.90;;;;;;5043728;28;20068;-76
2022/01/07 01:38:27;;;;;;;4.55;2.05;;;3.20;99.90;;;;;;5046112;28;20049;-76
2022/01/07 01:40:57;;;;;;;3.43;1.50;;;3.10;99.90;;;;;;5047860;28;20044;-76
2022/01/07 01:43:25;;;;;;;6.70;2.25;;;3.20;99.90;;;;;;5045168;28;20602;-76
2022/01/07 01:45:54;;;;;;;12.50;2.55;;;3.30;99.90;;;;;;5043961;28;20053;-76
2022/01/07 01:48:23;;;;;;;5.93;1.90;;;3.00;99.90;;;;;;5048103;28;20055;-76
2022/01/07 01:50:52;;;;;;;3.63;2.58;;;2.80;99.90;;;;;;5047540;28;20167;-76
2022/01/07 01:53:21;;;;;;;5.90;2.43;;;2.90;99.90;;;;;;5043769;28;20041;-76
2022/01/07 01:55:49;;;;;;;9.52;1.95;;;3.00;99.90;;;;;;5048472;28;20064;-76
2022/01/07 01:58:19;;;;;;;6.78;2.13;;;3.00;99.90;;;;;;5042935;28;20059;-76
2022/01/07 02:00:48;;;;;;;11.30;2.10;;;3.00;99.90;;;;;;5059757;28;20497;-76
2022/01/07 02:03:17;;;;;;;5.03;2.25;;;3.10;99.90;;;;;;5048153;28;20080;-76
2022/01/07 02:05:46;;;;;;;6.73;1.97;;;3.10;99.90;;;;;;5045264;28;20049;-76
2022/01/07 02:08:14;;;;;;;6.72;2.40;;;3.10;99.90;;;;;;5061893;28;20064;-76
2022/01/07 02:10:43;;;;;;;4.20;1.80;;;3.10;99.90;;;;;;5046301;28;20045;-76
2022/01/07 02:13:12;;;;;;;4.70;2.70;;;3.20;99.90;;;;;;5047342;28;20064;-76
2022/01/07 02:15:42;;;;;;;3.05;1.55;;;3.20;99.90;;;;;;5036805;28;20053;-76
2022/01/07 02:18:10;;;;;;;4.43;2.17;;;3.20;99.90;;;;;;5046049;28;20053;-76
2022/01/07 02:20:45;;;;;;;4.60;1.60;;;3.10;99.90;;;;;;5057457;28;20593;-76
2022/01/07 02:26:33;;;;;;;5.47;1.92;;;3.10;99.90;;;;;;5039728;28;20053;-76
2022/01/07 02:29:02;;;;;;;6.18;2.00;;;3.20;99.90;;;;;;5045125;28;20055;-76
2022/01/07 02:31:31;;;;;;;6.40;2.23;;;3.00;99.90;;;;;;5039932;28;20065;-76
2022/01/07 02:34:00;;;;;;;7.50;2.47;;;2.90;99.90;;;;;;5047842;28;20080;-76
2022/01/07 02:36:30;;;;;;;3.33;1.30;;;2.90;99.90;;;;;;5045370;28;20445;-76
2022/01/07 02:38:58;;;;;;;4.70;1.65;;;2.60;99.90;;;;;;5045837;28;20053;-75
2022/01/07 02:41:27;;;;;;;5.75;2.63;;;2.40;99.90;;;;;;5040217;28;20060;-76
2022/01/07 02:43:55;;;;;;;4.00;1.30;;;2.50;99.90;;;;;;5047837;28;20033;-76
2022/01/07 02:46:23;;;;;;;5.90;2.63;;;2.70;99.90;;;;;;5040451;28;20576;-76
2022/01/07 02:48:52;;;;;;;5.20;2.00;;;2.80;99.90;;;;;;5048131;28;20041;-76
2022/01/07 02:51:20;;;;;;;5.07;2.42;;;2.90;99.90;;;;;;5047010;28;20046;-76
2022/01/07 02:53:51;;;;;;;6.57;1.77;;;2.90;99.90;;;;;;5047263;28;20049;-76
2022/01/07 02:56:20;;;;;;;3.87;1.97;;;2.80;99.90;;;;;;5047193;28;20045;-76
2022/01/07 03:01:41;;;;;;;4.60;1.77;;;2.70;99.90;;;;;;5040021;28;20054;-76
2022/01/07 03:04:09;;;;;;;6.95;1.85;;;2.80;99.90;;;;;;5045027;28;20072;-76
2022/01/07 03:06:39;;;;;;;4.68;1.48;;;2.70;99.90;;;;;;5025338;28;20056;-76
2022/01/07 03:09:09;;;;;;;3.40;1.87;;;2.80;99.90;;;;;;5039131;28;20080;-76
2022/01/07 03:14:31;;;;;;;4.05;1.83;;;3.00;99.90;;;;;;5040769;28;20041;-76
2022/01/07 03:16:59;;;;;;;9.57;2.35;;;3.00;99.90;;;;;;5044527;28;20489;-76
2022/01/07 03:19:27;;;;;;;4.13;1.60;;;3.00;99.90;;;;;;5037262;28;20448;-76
2022/01/07 03:21:56;;;;;;;3.67;1.70;;;2.90;99.90;;;;;;5048117;28;20515;-76
2022/01/07 03:24:26;;;;;;;4.97;1.83;;;2.90;99.90;;;;;;5039241;28;20042;-76
2022/01/07 03:26:54;;;;;;;3.33;1.73;;;2.90;99.90;;;;;;5049378;28;20041;-76
2022/01/07 03:29:23;;;;;;;3.58;1.48;;;2.90;99.90;;;;;;5040200;28;20041;-76
2022/01/07 03:31:52;;;;;;;4.50;2.08;;;2.90;99.90;;;;;;5040263;28;20053;-76
2022/01/07 03:34:20;;;;;;;7.73;2.13;;;2.70;99.90;;;;;;5043829;28;20508;-73
2022/01/07 03:36:49;;;;;;;5.97;1.95;;;2.70;99.90;;;;;;5045530;28;20194;-76
2022/01/07 03:39:18;;;;;;;7.00;2.20;;;2.50;99.90;;;;;;5029430;28;20038;-76
2022/01/07 03:41:47;;;;;;;6.43;2.78;;;2.60;99.90;;;;;;5029588;28;20038;-76
2022/01/07 03:44:16;;;;;;;8.60;2.17;;;2.40;99.90;;;;;;5044990;28;20480;-76
2022/01/07 03:46:44;;;;;;;4.93;2.10;;;2.20;99.90;;;;;;5040988;28;20056;-76
2022/01/07 03:49:13;;;;;;;3.92;2.53;;;2.30;99.90;;;;;;5044226;28;20111;-76
2022/01/07 03:51:42;;;;;;;6.82;1.90;;;2.30;99.90;;;;;;5038397;28;20029;-76
2022/01/07 03:54:10;;;;;;;6.22;1.98;;;2.30;99.90;;;;;;5043363;28;20067;-76
2022/01/07 03:56:39;;;;;;;4.32;1.88;;;2.40;99.90;;;;;;5039372;28;20033;-76
2022/01/07 03:59:08;;;;;;;2.90;1.87;;;2.50;99.90;;;;;;5044545;28;20119;-76
2022/01/07 04:01:37;;;;;;;4.63;2.05;;;2.60;99.90;;;;;;5037802;28;20479;-76
2022/01/07 04:04:06;;;;;;;8.82;1.90;;;2.70;99.90;;;;;;5029929;28;20087;-76
2022/01/07 04:06:35;;;;;;;3.40;1.63;;;2.70;99.90;;;;;;5027072;28;20044;-76
2022/01/07 04:09:04;;;;;;;6.47;2.80;;;2.70;99.90;;;;;;5042382;28;20479;-76
2022/01/07 04:11:32;;;;;;;2.80;1.60;;;2.60;99.90;;;;;;5043520;28;20498;-76
2022/01/07 04:14:27;;;;;;;11.52;2.55;;;2.60;99.90;;;;;;5045841;28;20398;-76
2022/01/07 04:16:56;;;;;;;5.70;2.60;;;2.60;99.90;;;;;;5040051;28;20061;-76
2022/01/07 04:19:25;;;;;;;4.47;1.73;;;2.70;99.90;;;;;;5042824;28;20116;-76
2022/01/07 04:21:54;;;;;;;3.17;2.42;;;2.70;99.90;;;;;;5045531;28;20049;-76
2022/01/07 04:24:22;;;;;;;3.17;1.63;;;2.60;99.90;;;;;;5043729;28;20040;-76
2022/01/07 04:26:51;;;;;;;9.75;2.05;;;2.60;99.90;;;;;;5045163;28;20048;-76
2022/01/07 04:29:20;;;;;;;4.47;1.58;;;2.70;99.90;;;;;;5037072;28;20047;-76
2022/01/07 04:31:50;;;;;;;5.93;1.55;;;2.70;99.90;;;;;;5042602;28;20053;-76
2022/01/07 04:34:19;;;;;;;4.38;1.95;;;2.70;99.90;;;;;;5043918;28;20045;-76
2022/01/07 04:36:48;;;;;;;4.93;1.90;;;2.60;99.90;;;;;;5045871;28;20070;-77
2022/01/07 04:39:16;;;;;;;7.18;1.52;;;2.70;99.90;;;;;;5039658;28;20088;-76
2022/01/07 04:41:44;;;;;;;8.07;2.50;;;2.80;99.90;;;;;;5044502;28;20048;-76
2022/01/07 04:44:12;;;;;;;6.65;1.90;;;2.70;99.90;;;;;;5039129;28;20038;-76
2022/01/07 04:46:40;;;;;;;5.00;1.55;;;2.80;99.90;;;;;;5040328;28;20062;-76
2022/01/07 04:49:10;;;;;;;3.50;1.60;;;2.80;99.90;;;;;;5046788;28;20095;-76
2022/01/07 04:51:39;;;;;;;7.10;1.70;;;2.90;99.90;;;;;;5046423;28;20040;-76
2022/01/07 04:54:07;;;;;;;7.30;1.52;;;2.90;99.90;;;;;;5048896;28;20118;-76
2022/01/07 04:56:36;;;;;;;8.15;2.13;;;3.00;99.90;;;;;;5029972;28;20223;-76
2022/01/07 04:59:04;;;;;;;4.30;1.83;;;3.00;99.90;;;;;;5052450;28;20076;-76
2022/01/07 05:01:33;;;;;;;3.30;1.83;;;2.90;99.90;;;;;;5048549;28;20065;-76
2022/01/07 05:04:02;;;;;;;4.28;1.80;;;2.90;99.90;;;;;;5064085;28;20067;-75
2022/01/07 05:06:45;;;;;;;10.10;2.28;;;2.90;99.90;;;;;;5031309;28;20136;-76
2022/01/07 05:09:16;;;;;;;7.40;1.88;;;2.90;99.90;;;;;;5045893;28;20041;-76
2022/01/07 05:11:48;;;;;;;5.03;1.73;;;3.00;99.90;;;;;;5031596;28;20118;-76
2022/01/07 05:14:18;;;;;;;4.13;1.70;;;2.90;99.90;;;;;;5046011;28;20044;-76
2022/01/07 05:16:46;;;;;;;11.75;2.80;;;2.90;99.90;;;;;;5034711;28;20140;-76
2022/01/07 05:19:15;;;;;;;5.32;2.15;;;2.80;99.90;;;;;;5043922;28;20539;-76
2022/01/07 05:21:46;;;;;;;3.60;1.65;;;2.80;99.90;;;;;;5038798;28;20076;-76
2022/01/07 05:24:15;;;;;;;2.80;1.55;;;2.80;99.90;;;;;;5036740;28;20041;-76
2022/01/07 05:26:44;;;;;;;2.63;1.33;;;2.90;99.90;;;;;;5044697;28;20124;-76
2022/01/07 05:29:12;;;;;;;5.47;1.60;;;2.80;99.90;;;;;;5044900;28;20064;-76
2022/01/07 05:31:42;;;;;;;2.83;1.27;;;2.80;99.90;;;;;;5041296;28;20061;-76
2022/01/07 05:34:10;;;;;;;6.72;1.60;;;2.90;99.90;;;;;;5041333;28;20049;-76
2022/01/07 05:36:39;;;;;;;3.25;1.52;;;2.80;99.90;;;;;;5045757;28;20037;-76
2022/01/07 05:39:10;;;;;;;2.70;1.27;;;2.80;99.90;;;;;;5043555;28;20048;-78
2022/01/07 05:41:39;;;;;;;4.25;2.15;;;2.90;99.90;;;;;;5045082;28;20048;-76
2022/01/07 05:44:08;;;;;;;4.43;1.58;;;2.90;99.90;;;;;;5039914;28;20040;-76
2022/01/07 05:46:36;;;;;;;10.35;1.85;;;2.70;99.90;;;;;;5042789;28;20169;-76
2022/01/07 05:49:04;;;;;;;4.18;1.77;;;2.70;99.90;;;;;;5040348;28;20048;-76
2022/01/07 05:51:33;;;;;;;2.97;1.60;;;2.70;99.90;;;;;;5044331;28;20045;-76
2022/01/07 05:54:01;;;;;;;5.40;2.15;;;2.70;99.90;;;;;;5042978;28;20464;-76
2022/01/07 05:56:31;;;;;;;3.53;1.33;;;2.80;99.90;;;;;;5041917;28;20790;-76
2022/01/07 05:59:25;;;;;;;3.60;2.08;;;2.70;99.90;;;;;;5046405;28;20054;-76
2022/01/07 06:01:53;;;;;;;3.83;2.22;;;2.50;99.90;;;;;;5035435;28;20049;-76
2022/01/07 06:04:25;;;;;;;4.80;2.27;;;2.60;99.90;;;;;;5041148;28;20049;-76
2022/01/07 06:06:54;;;;;;;3.78;1.60;;;2.60;99.90;;;;;;5031418;28;20103;-75
2022/01/07 06:09:22;;;;;;;8.20;2.72;;;2.60;99.90;;;;;;5032028;28;20052;-76
2022/01/07 06:11:52;;;;;;;5.15;2.75;;;2.50;99.90;;;;;;5041305;28;20037;-76
2022/01/07 06:14:22;;;;;;;3.83;2.25;;;2.50;99.90;;;;;;5046509;28;20045;-76
2022/01/07 06:16:50;;;;;;;9.40;2.90;;;2.30;99.90;;;;;;5020516;28;20049;-76
2022/01/07 06:19:20;;;;;;;8.15;2.20;;;2.40;99.90;;;;;;5042656;28;20059;-76
2022/01/07 06:21:49;;;;;;;5.53;2.03;;;2.50;99.90;;;;;;5041335;28;20049;-76
2022/01/07 06:24:17;;;;;;;7.78;3.17;;;2.60;99.90;;;;;;5047022;28;20065;-76
2022/01/07 06:26:46;;;;;;;8.15;2.22;;;2.50;99.90;;;;;;5041036;28;20529;-76
2022/01/07 06:29:16;;;;;;;5.93;2.33;;;2.60;99.90;;;;;;5048684;28;20041;-76
2022/01/07 06:31:45;;;;;;;6.82;2.72;;;2.60;99.90;;;;;;5042135;28;20057;-74
2022/01/07 06:34:14;;;;;;;7.15;3.15;;;2.70;99.90;;;;;;5046924;28;20052;-74
2022/01/07 06:36:42;;;;;;;12.07;3.22;;;2.70;99.90;;;;;;5046180;28;20041;-74
2022/01/07 06:39:11;;;;;;;7.68;3.65;;;2.60;99.90;;;;;;5043459;28;20041;-74
2022/01/07 06:41:39;;;;;;;11.00;3.93;;;2.80;99.90;;;;;;5049442;28;20041;-74
2022/01/07 06:44:07;;;;;;;7.65;3.38;;;2.90;99.90;;;;;;5045008;28;20037;-74
2022/01/07 06:46:37;;;;;;;7.70;2.80;;;2.80;99.90;;;;;;5042301;28;20053;-74
2022/01/07 06:49:05;;;;;;;7.57;3.67;;;2.90;99.90;;;;;;5040847;28;20041;-74
2022/01/07 06:51:34;;;;;;;5.30;2.78;;;2.90;99.90;;;;;;5032006;28;20036;-74
2022/01/07 06:54:03;;;;;;;13.83;3.20;;;2.90;99.90;;;;;;5043028;28;20507;-74
2022/01/07 06:57:22;;;;;;;5.78;2.78;;;2.90;99.90;;;;;;5046189;28;20068;-74
2022/01/07 06:59:52;;;;;;;9.15;4.10;;;2.90;99.90;;;;;;5043713;28;20029;-76
2022/01/07 07:02:23;;;;;;;7.60;3.63;;;2.80;99.90;;;;;;5045917;28;20052;-79
2022/01/07 07:04:51;;;;;;;15.93;4.32;;;2.80;99.90;;;;;;5029032;28;20501;-74
2022/01/07 07:07:19;;;;;;;7.13;2.43;;;2.80;99.90;;;;;;5044156;28;20042;-74
2022/01/07 07:09:48;;;;;;;7.68;3.30;;;2.80;99.90;;;;;;5037316;28;20406;-72
2022/01/07 07:12:16;;;;;;;11.35;3.80;;;2.90;99.90;;;;;;5043778;28;20862;-71
2022/01/07 07:14:45;;;;;;;10.13;3.50;;;3.00;99.90;;;;;;5044442;28;20048;-74
2022/01/07 07:17:14;;;;;;;5.63;2.83;;;3.10;99.90;;;;;;5041463;28;20057;-73
2022/01/07 07:19:44;;;;;;;5.90;3.00;;;3.00;99.90;;;;;;5046621;28;20041;-74
2022/01/07 07:22:13;;;;;;;6.35;3.17;;;3.00;99.90;;;;;;5041084;28;20438;-73
2022/01/07 07:24:42;;;;;;;9.82;3.72;;;3.10;99.90;;;;;;5046533;28;20037;-73
2022/01/07 07:27:12;;;;;;;12.45;4.03;;;3.20;99.90;;;;;;5057268;28;20116;-80
2022/01/07 07:29:40;;;;;;;7.20;3.15;;;3.30;99.90;;;;;;5061916;28;20060;-80
2022/01/07 07:32:11;;;;;;;6.10;2.40;;;3.30;99.90;;;;;;5045750;28;20048;-80
2022/01/07 07:34:58;;;;;;;4.57;2.38;;;3.30;99.90;;;;;;5056856;28;20064;-81
2022/01/07 07:37:28;;;;;;;8.70;3.85;;;3.20;99.90;;;;;;5056230;28;20091;-79
2022/01/07 07:39:57;;;;;;;12.32;4.35;;;3.20;99.90;;;;;;5027907;28;20047;-79
2022/01/07 07:42:25;;;;;;;7.25;4.00;;;3.30;99.90;;;;;;5036783;28;20079;-79
2022/01/07 07:44:58;;;;;;;9.33;3.47;;;3.40;99.90;;;;;;5045323;28;20053;-79
2022/01/07 07:47:29;;;;;;;7.95;3.03;;;3.30;99.90;;;;;;5047274;28;20053;-79
2022/01/07 07:49:58;;;;;;;8.88;3.35;;;3.40;99.90;;;;;;5050586;28;20055;-80
2022/01/07 07:52:30;;;;;;;10.20;2.97;;;3.40;99.90;;;;;;5039309;28;20037;-79
2022/01/07 07:54:58;;;;;;;11.02;4.05;;;3.50;99.90;;;;;;5035216;28;20521;-72
2022/01/07 07:57:27;;;;;;;6.13;3.10;;;3.50;99.90;;;;;;5051660;28;20044;-71
2022/01/07 07:59:57;;;;;;;8.20;2.55;;;3.50;99.90;;;;;;5046511;28;20071;-73
2022/01/07 08:02:30;;;;;;;9.02;3.58;;;3.50;99.90;;;;;;5023990;28;20060;-79
2022/01/07 08:04:59;;;;;;;7.82;4.22;;;3.70;99.90;;;;;;5041352;28;20062;-79
2022/01/07 08:07:29;;;;;;;12.25;4.47;;;3.60;99.90;;;;;;5040623;28;20124;-80
2022/01/07 08:09:59;;;;;;;9.53;3.50;;;3.70;99.90;;;;;;5029026;28;20087;-79
2022/01/07 08:12:49;;;;;;;7.82;3.47;;;3.80;99.90;;;;;;5040093;28;20037;-76
2022/01/07 08:18:09;;;;;;;8.05;2.28;;;3.90;99.90;;;;;;5044981;28;20096;-81
2022/01/07 08:21:07;;;;;;;6.90;3.15;;;3.90;99.90;;;;;;5049635;28;20037;-76
2022/01/07 08:26:31;;;;;;;6.95;2.53;;;3.80;99.90;;;;;;5047426;28;20053;-71
2022/01/07 08:29:05;;;;;;;12.82;4.63;;;3.90;99.90;;;;;;5041857;28;20037;-76
2022/01/07 08:37:06;;;;;;;12.40;4.20;;;3.80;99.90;;;;;;5037862;28;20048;-72
2022/01/07 08:39:36;;;;;;;13.93;3.95;;;3.90;99.90;;;;;;5036414;28;20516;-73
2022/01/07 08:42:05;;;;;;;9.10;3.20;;;3.90;99.90;;;;;;5046563;28;20055;-70
2022/01/07 08:44:34;;;;;;;6.93;3.25;;;3.90;99.90;;;;;;5036692;28;20045;-70
2022/01/07 08:47:02;;;;;;;9.35;4.22;;;3.90;99.90;;;;;;5036697;28;20170;-70
2022/01/07 08:49:35;;;;;;;6.43;2.67;;;3.90;99.90;;;;;;5045407;28;20491;-70
2022/01/07 08:52:05;;;;;;;8.23;3.08;;;3.90;99.90;;;;;;5048328;28;20033;-70
2022/01/07 08:54:36;;;;;;;10.38;3.72;;;4.00;99.90;;;;;;5035234;28;20037;-71
2022/01/07 08:57:07;;;;;;;7.75;3.25;;;4.00;99.90;;;;;;5047393;28;20042;-67
2022/01/07 08:59:37;;;;;;;7.95;3.03;;;4.10;99.90;;;;;;5043283;28;20049;-68
2022/01/07 09:02:06;;;;;;;9.07;2.87;;;4.20;99.90;;;;;;5036315;28;20128;-67
2022/01/07 09:04:34;;;;;;;9.38;4.72;;;4.30;99.90;;;;;;5049375;28;20067;-67
2022/01/07 09:07:05;;;;;;;12.52;3.80;;;4.20;99.90;;;;;;5034862;28;20538;-70
2022/01/07 09:09:35;;;;;;;10.82;5.15;;;4.20;99.90;;;;;;5032955;28;20059;-70
2022/01/07 09:12:06;;;;;;;8.85;3.30;;;4.20;99.90;;;;;;5043798;28;20041;-70
2022/01/07 09:14:35;;;;;;;5.17;3.13;;;4.20;99.90;;;;;;5014573;28;20545;-70
2022/01/07 09:17:03;;;;;;;10.07;4.22;;;4.20;99.90;;;;;;5021831;28;20140;-71
2022/01/07 09:19:32;;;;;;;12.77;4.22;;;4.30;99.90;;;;;;5029110;28;20570;-71
2022/01/07 09:22:01;;;;;;;15.65;5.22;;;4.40;99.90;;;;;;5043035;28;20491;-71
2022/01/07 09:24:30;;;;;;;9.60;4.15;;;4.40;99.90;;;;;;5047037;28;20111;-71
2022/01/07 09:27:00;;;;;;;7.63;3.83;;;4.30;99.90;;;;;;5042086;28;20045;-71
2022/01/07 09:29:30;;;;;;;8.30;4.40;;;4.40;99.90;;;;;;5040045;28;20133;-75
2022/01/07 09:31:59;;;;;;;10.65;5.47;;;4.40;99.90;;;;;;5036361;28;20060;-70
2022/01/07 09:34:28;;;;;;;11.85;4.40;;;4.50;99.90;;;;;;5037454;28;20410;-70
2022/01/07 09:37:03;;;;;;;9.32;4.35;;;4.50;99.90;;;;;;5033538;28;20051;-68
2022/01/07 09:39:32;;;;;;;7.73;3.77;;;4.40;99.90;;;;;;5032424;28;20539;-74
2022/01/07 09:42:04;;;;;;;7.47;3.55;;;4.40;99.90;;;;;;5024032;28;20045;-70
2022/01/07 09:44:38;;;;;;;9.20;3.67;;;4.50;99.90;;;;;;5047668;28;20212;-68
2022/01/07 09:47:08;;;;;;;11.95;3.95;;;4.60;99.90;;;;;;5041042;28;20049;-68
2022/01/07 09:49:36;;;;;;;9.57;3.58;;;4.50;99.90;;;;;;5040353;28;20050;-67
2022/01/07 09:52:07;;;;;;;8.03;3.97;;;4.60;99.90;;;;;;5038465;28;20126;-68
2022/01/07 09:54:40;;;;;;;7.70;3.47;;;4.60;99.90;;;;;;5013007;28;20450;-68
2022/01/07 09:57:11;;;;;;;9.43;3.78;;;4.70;99.90;;;;;;5031486;28;20071;-68
2022/01/07 09:59:40;;;;;;;8.80;4.63;;;4.70;99.90;;;;;;5045178;28;20052;-66
2022/01/07 10:02:18;;;;;;;8.00;3.10;;;4.70;99.90;;;;;;5035887;28;20144;-76
2022/01/07 10:04:47;;;;;;;8.40;3.47;;;4.70;99.90;;;;;;5038013;28;20103;-71
2022/01/07 10:07:20;;;;;;;8.77;3.53;;;4.70;99.90;;;;;;5053429;28;20060;-69
2022/01/07 10:10:00;;;;;;;7.20;3.30;;;4.70;99.90;;;;;;5052417;28;20459;-77
2022/01/07 10:12:33;;;;;;;8.00;2.60;;;4.70;99.90;;;;;;5050051;28;20491;-69
2022/01/07 10:15:12;;;;;;;9.30;3.42;;;4.80;99.90;;;;;;5044887;28;20040;-69
2022/01/07 10:17:41;;;;;;;9.13;3.37;;;4.90;99.90;;;;;;5049618;28;20053;-66
2022/01/07 10:20:16;;;;;;;7.82;3.72;;;4.90;99.90;;;;;;5048551;28;20033;-67
2022/01/07 10:22:51;;;;;;;16.67;3.53;;;4.90;99.90;;;;;;5042814;28;20045;-73
2022/01/07 10:25:21;;;;;;;9.20;4.00;;;5.00;99.90;;;;;;5046868;28;20053;-69
2022/01/07 10:27:52;;;;;;;9.95;3.65;;;5.00;99.90;;;;;;5045557;28;20120;-68
2022/01/07 10:30:26;;;;;;;6.97;3.33;;;5.00;99.90;;;;;;5045490;28;20056;-65
2022/01/07 10:32:56;;;;;;;7.43;3.67;;;5.00;99.90;;;;;;5030014;28;20037;-67
2022/01/07 10:35:26;;;;;;;8.05;3.08;;;5.00;99.90;;;;;;5045123;28;20425;-68
2022/01/07 10:37:57;;;;;;;8.73;3.20;;;5.00;99.90;;;;;;5050046;28;20144;-68
2022/01/07 10:40:32;;;;;;;8.75;3.35;;;5.00;99.90;;;;;;5034230;28;20047;-68
2022/01/07 10:43:19;;;;;;;8.60;2.93;;;5.00;99.90;;;;;;5049859;28;20099;-70
2022/01/07 10:45:50;;;;;;;9.45;2.65;;;5.00;99.90;;;;;;5046931;28;20055;-69
2022/01/07 10:48:26;;;;;;;6.10;3.00;;;5.10;99.90;;;;;;5026020;28;20047;-68
2022/01/07 10:50:55;;;;;;;9.25;4.43;;;5.10;99.90;;;;;;5044178;28;20495;-69
2022/01/07 10:53:28;;;;;;;7.93;3.10;;;5.20;99.90;;;;;;5024321;28;20041;-72
2022/01/07 10:56:24;;;;;;;8.73;3.37;;;5.20;99.90;;;;;;5048025;28;20060;-69
2022/01/07 10:59:06;;;;;;;9.85;2.92;;;5.30;99.90;;;;;;5041443;28;20460;-70
2022/01/07 11:01:41;;;;;;;9.38;3.72;;;5.30;99.90;;;;;;5042099;28;20386;-68
2022/01/07 11:04:13;;;;;;;6.68;3.13;;;5.30;99.90;;;;;;5031154;28;20503;-69
2022/01/07 11:06:42;;;;;;;8.88;3.53;;;5.30;99.90;;;;;;5030218;28;20120;-67
2022/01/07 11:09:13;;;;;;;6.43;2.93;;;5.40;99.90;;;;;;4992317;28;20049;-69
2022/01/07 11:12:08;;;;;;;10.05;3.22;;;5.40;99.90;;;;;;5022500;28;20483;-68
2022/01/07 11:14:40;;;;;;;8.45;3.20;;;5.40;99.90;;;;;;5010017;28;20056;-69
2022/01/07 11:17:12;;;;;;;7.05;2.97;;;5.40;99.90;;;;;;5023070;28;20484;-69
2022/01/07 11:19:44;;;;;;;9.65;4.05;;;5.50;99.90;;;;;;5025975;28;20057;-69
2022/01/07 11:22:14;;;;;;;8.23;3.30;;;5.50;99.90;;;;;;5021494;28;20451;-68
2022/01/07 11:24:45;;;;;;;5.95;2.22;;;5.50;99.90;;;;;;5023174;28;20458;-68
2022/01/07 11:27:15;;;;;;;12.32;4.03;;;5.60;99.90;;;;;;4991900;28;20128;-68
2022/01/07 11:30:07;;;;;;;7.95;3.55;;;5.60;99.90;;;;;;5025590;28;21793;-68
2022/01/07 11:32:38;;;;;;;8.30;3.22;;;5.60;99.90;;;;;;5018436;28;20079;-69
2022/01/07 11:35:45;;;;;;;8.13;3.27;;;5.60;99.90;;;;;;5024931;28;20499;-68
2022/01/07 11:38:37;;;;;;;8.45;3.22;;;5.70;99.90;;;;;;5005402;28;20481;-68
2022/01/07 11:41:23;;;;;;;8.00;3.70;;;5.70;99.90;;;;;;5012153;28;20046;-68
2022/01/07 11:43:52;;;;;;;9.02;3.03;;;5.70;99.90;;;;;;5023106;28;20603;-69
2022/01/07 11:46:31;;;;;;;9.05;3.42;;;5.50;99.90;;;;;;5025641;28;20053;-69
2022/01/07 11:49:01;;;;;;;10.80;3.63;;;5.50;99.90;;;;;;5021364;28;20041;-68
2022/01/07 11:51:42;;;;;;;9.38;3.38;;;5.50;99.90;;;;;;5027363;28;20045;-68
2022/01/07 11:54:13;;;;;;;11.95;4.25;;;5.50;99.90;;;;;;5021941;28;20484;-69
2022/01/07 11:56:45;;;;;;;8.18;2.92;;;5.60;99.90;;;;;;5027157;28;20469;-68
2022/01/07 11:59:19;;;;;;;10.68;4.47;;;5.50;99.90;;;;;;5010906;28;20128;-69
2022/01/07 12:02:05;;;;;;;7.40;3.80;;;5.50;99.90;;;;;;5017946;28;20068;-68
2022/01/07 12:04:36;;;;;;;8.30;3.45;;;5.40;99.90;;;;;;5036960;28;20072;-68
2022/01/07 12:07:06;;;;;;;10.75;3.65;;;5.50;99.90;;;;;;5028522;28;20179;-68
2022/01/07 12:09:40;;;;;;;7.38;3.08;;;5.50;99.90;;;;;;5042359;28;20055;-68
2022/01/07 12:12:11;;;;;;;7.35;3.78;;;;;;;;;;5027840;28;20037;-68
2022/01/07 12:17:43;;;;;;;8.77;2.53;;;;;;;;;;5040043;28;20575;-69
2022/01/07 12:20:49;;;;;;;9.10;3.60;;;5.40;99.90;;;;;;5039555;28;20094;-69
2022/01/07 12:23:22;;;;;;;10.07;2.95;;;5.40;99.90;;;;;;5037813;28;20041;-69
2022/01/07 12:25:53;;;;;;;8.35;2.63;;;5.40;99.90;;;;;;5039297;28;20060;-70
2022/01/07 12:28:48;;;;;;;8.97;2.97;;;5.40;99.90;;;;;;5038368;28;20053;-69
2022/01/07 12:31:17;;;;;;;7.65;3.05;;;5.50;99.90;;;;;;5036769;28;20090;-69
2022/01/07 12:33:52;;;;;;;9.57;3.40;;;5.50;99.90;;;;;;5035415;28;20052;-68
2022/01/07 12:36:26;;;;;;;7.45;3.35;;;5.50;99.90;;;;;;5039894;28;20045;-69
2022/01/07 12:38:59;;;;;;;6.55;3.00;;;5.60;99.90;;;;;;5041677;28;20045;-69
2022/01/07 12:41:28;;;;;;;8.73;3.07;;;5.60;99.90;;;;;;5036033;28;20603;-69
2022/01/07 12:44:05;;;;;;;6.90;3.03;;;5.60;99.90;;;;;;5045652;28;20029;-69
2022/01/07 12:46:34;;;;;;;7.75;3.25;;;5.50;99.90;;;;;;5042771;28;20088;-68
2022/01/07 12:49:04;;;;;;;8.23;2.95;;;5.50;99.90;;;;;;5046116;28;20048;-69
2022/01/07 12:51:34;;;;;;;7.30;3.63;;;5.50;99.90;;;;;;5045720;28;20048;-69
2022/01/07 12:54:05;;;;;;;7.80;2.60;;;5.50;99.90;;;;;;5029091;28;20119;-69
2022/01/07 12:56:36;;;;;;;9.02;3.08;;;5.50;99.90;;;;;;5047265;28;20076;-69
2022/01/07 12:59:13;;;;;;;17.80;3.63;;;5.50;99.90;;;;;;5047377;28;20041;-69
2022/01/07 13:01:45;;;;;;;9.05;2.67;;;5.60;99.90;;;;;;5021929;28;20140;-69
2022/01/07 13:04:22;;;;;;;13.68;4.10;;;5.50;99.90;;;;;;5025911;28;20140;-68
2022/01/07 13:06:53;;;;;;;7.27;4.17;;;5.50;99.90;;;;;;5020485;28;20051;-68
2022/01/07 13:09:23;;;;;;;8.55;3.35;;;5.50;99.90;;;;;;5022153;28;20046;-69
2022/01/07 13:11:53;;;;;;;10.45;3.95;;;5.50;99.90;;;;;;5007762;28;20045;-68
2022/01/07 13:14:23;;;;;;;6.70;3.28;;;5.50;99.90;;;;;;5024297;28;20049;-70
2022/01/07 13:16:53;;;;;;;11.15;4.38;;;5.50;99.90;;;;;;5024270;28;20063;-70
2022/01/07 13:19:23;;;;;;;9.73;3.90;;;5.50;99.90;;;;;;5023166;28;20037;-68
2022/01/07 13:21:54;;;;;;;10.85;2.97;;;5.50;99.90;;;;;;5027546;28;20452;-69
2022/01/07 13:24:27;;;;;;;8.40;3.47;;;5.50;99.90;;;;;;5007519;28;20769;-69
2022/01/07 13:27:03;;;;;;;6.32;2.58;;;5.50;99.90;;;;;;5026439;28;20157;-69
2022/01/07 13:29:33;;;;;;;7.80;3.22;;;5.30;99.90;;;;;;5014009;28;20124;-69
2022/01/07 13:32:05;;;;;;;8.30;3.30;;;5.40;99.90;;;;;;5004323;28;20060;-69
2022/01/07 13:34:38;;;;;;;10.27;3.92;;;5.30;99.90;;;;;;5012245;28;20136;-69
2022/01/07 13:37:14;;;;;;;8.20;3.40;;;5.30;99.90;;;;;;5025035;28;20111;-68
2022/01/07 13:39:44;;;;;;;8.63;3.45;;;5.30;99.90;;;;;;5011526;28;20059;-68
2022/01/07 13:42:19;;;;;;;8.10;3.80;;;5.20;99.90;;;;;;5030567;28;20127;-79